Time;durP1;ratioP1;P1;durP2;ratioP2;P2;SDS_P1;SDS_P2;PMS_P1;PMS_P2;Temp;Humidity;BMP_temperature;BMP_pressure;BME280_temperature;BME280_humidity;BME280_pressure;Samples;Min_cycle;Max_cycle;Signal;HPM_P1;HPM_P2
2021/04/18 00:02:11;;;;;;;;;;;10.00;59.60;;;;;;4935473;29;19931;-80
2021/04/18 00:04:38;;;;;;;;;;;10.00;59.60;;;;;;4918763;29;19927;-80
2021/04/18 00:07:07;;;;;;;;;;;10.00;59.70;;;;;;4938633;29;19934;-80
2021/04/18 00:09:33;;;;;;;;;;;10.00;59.80;;;;;;4927315;29;20328;-81
2021/04/18 00:12:00;;;;;;;;;;;10.00;59.90;;;;;;4937063;29;19931;-80
2021/04/18 00:14:29;;;;;;;;;;;10.00;60.00;;;;;;4935206;29;19927;-80
2021/04/18 00:16:56;;;;;;;;;;;9.90;61.20;;;;;;4937223;29;19927;-80
2021/04/18 00:19:22;;;;;;;;;;;9.90;61.40;;;;;;4923661;29;19931;-81
2021/04/18 00:21:49;;;;;;;;;;;10.00;60.40;;;;;;4921969;29;19950;-81
2021/04/18 00:24:15;;;;;;;;;;;10.00;59.90;;;;;;4932511;29;19927;-80
2021/04/18 00:26:41;;;;;;;;;;;10.00;59.70;;;;;;4935587;29;19949;-80
2021/04/18 00:29:11;;;;;;;;;;;10.00;59.20;;;;;;4923594;29;20352;-81
2021/04/18 00:31:37;;;;;;;;;;;10.00;59.00;;;;;;4929136;29;19927;-81
2021/04/18 00:34:04;;;;;;;;;;;10.10;59.00;;;;;;4925919;29;20304;-81
2021/04/18 00:36:31;;;;;;;;;;;10.10;58.70;;;;;;4917881;29;19927;-80
2021/04/18 00:38:57;;;;;;;;;;;10.10;58.70;;;;;;4926213;29;19926;-79
2021/04/18 00:41:23;;;;;;;;;;;10.10;58.60;;;;;;4928911;29;19986;-79
2021/04/18 00:43:50;;;;;;;;;;;10.10;58.50;;;;;;4918007;29;19927;-79
2021/04/18 00:46:16;;;;;;;;;;;10.20;58.50;;;;;;4917575;29;19931;-79
2021/04/18 00:48:43;;;;;;;;;;;10.20;58.40;;;;;;4920155;29;19930;-79
2021/04/18 00:51:10;;;;;;;;;;;10.20;58.40;;;;;;4932062;29;19935;-79
2021/04/18 00:53:36;;;;;;;;;;;10.10;58.30;;;;;;4918149;29;19927;-79
2021/04/18 00:56:03;;;;;;;;;;;10.10;58.40;;;;;;4935024;29;19934;-81
2021/04/18 00:58:30;;;;;;;;;;;10.10;58.40;;;;;;4932593;29;19934;-81
2021/04/18 01:00:56;;;;;;;;;;;10.10;58.30;;;;;;4936158;29;19982;-81
2021/04/18 01:03:24;;;;;;;;;;;10.10;58.20;;;;;;4918057;29;19937;-80
2021/04/18 01:05:50;;;;;;;;;;;10.10;58.30;;;;;;4919192;29;19927;-81
2021/04/18 01:08:18;;;;;;;;;;;10.10;58.10;;;;;;4955444;29;19991;-81
2021/04/18 01:10:44;;;;;;;;;;;10.10;58.10;;;;;;4939297;28;19931;-81
2021/04/18 01:13:10;;;;;;;;;;;10.10;58.10;;;;;;4934454;29;19926;-81
2021/04/18 01:15:37;;;;;;;;;;;10.10;58.30;;;;;;4923240;29;19991;-81
2021/04/18 01:18:25;;;;;;;;;;;10.00;58.20;;;;;;4915288;29;20378;-85
2021/04/18 01:21:26;;;;;;;;;;;10.00;58.20;;;;;;4930247;29;19935;-85
2021/04/18 01:24:41;;;;;;;;;;;10.00;58.20;;;;;;4933247;29;19926;-84
2021/04/18 01:32:52;;;;;;;;;;;10.00;58.30;;;;;;4863356;29;19927;-80
2021/04/18 01:35:19;;;;;;;;;;;10.00;58.20;;;;;;4917859;29;19935;-80
2021/04/18 01:37:46;;;;;;;;;;;10.00;58.10;;;;;;4924778;29;20348;-80
2021/04/18 01:40:14;;;;;;;;;;;10.00;58.00;;;;;;4932840;29;19927;-78
2021/04/18 01:42:40;;;;;;;;;;;10.10;58.20;;;;;;4932389;29;19934;-78
2021/04/18 01:45:08;;;;;;;;;;;10.10;58.20;;;;;;4924817;29;19927;-78
2021/04/18 01:47:34;;;;;;;;;;;10.10;58.20;;;;;;4917413;29;19931;-79
2021/04/18 01:50:00;;;;;;;;;;;10.10;58.20;;;;;;4916761;29;19927;-79
2021/04/18 01:52:27;;;;;;;;;;;10.10;58.20;;;;;;4919752;29;19931;-79
2021/04/18 01:54:54;;;;;;;;;;;10.00;58.10;;;;;;4932245;29;20292;-79
2021/04/18 01:57:21;;;;;;;;;;;10.00;58.00;;;;;;4933875;29;19926;-82
2021/04/18 01:59:47;;;;;;;;;;;10.00;57.90;;;;;;4921072;29;20439;-82
2021/04/18 02:02:17;;;;;;;;;;;10.00;58.00;;;;;;4925080;29;19927;-83
2021/04/18 02:04:58;;;;;;;;;;;10.10;58.10;;;;;;4926223;29;19927;-83
2021/04/18 02:07:24;;;;;;;;;;;10.10;58.00;;;;;;4949402;29;19926;-81
2021/04/18 02:09:50;;;;;;;;;;;10.10;58.10;;;;;;4935302;28;19927;-81
2021/04/18 02:15:24;;;;;;;;;;;10.10;58.00;;;;;;4934527;29;19989;-81
2021/04/18 02:17:50;;;;;;;;;;;10.20;58.10;;;;;;4922143;29;20022;-82
2021/04/18 02:20:17;;;;;;;;;;;10.20;58.20;;;;;;4928208;29;19926;-82
2021/04/18 02:22:46;;;;;;;;;;;10.10;58.10;;;;;;4924034;29;19927;-82
2021/04/18 02:25:14;;;;;;;;;;;10.10;58.00;;;;;;4920182;29;19969;-82
2021/04/18 02:27:40;;;;;;;;;;;10.10;58.00;;;;;;4929631;29;20380;-85
2021/04/18 02:30:07;;;;;;;;;;;10.10;58.10;;;;;;4934830;29;19934;-81
2021/04/18 02:32:34;;;;;;;;;;;10.10;58.00;;;;;;4933199;29;19942;-81
2021/04/18 02:35:01;;;;;;;;;;;10.10;58.10;;;;;;4929565;29;19931;-81
2021/04/18 02:37:27;;;;;;;;;;;10.10;58.20;;;;;;4920825;29;20303;-80
2021/04/18 02:39:53;;;;;;;;;;;10.10;58.30;;;;;;4918679;29;19927;-81
2021/04/18 02:42:20;;;;;;;;;;;10.10;58.10;;;;;;4925252;29;20399;-79
2021/04/18 02:44:46;;;;;;;;;;;10.10;58.10;;;;;;4926758;29;19930;-79
2021/04/18 03:05:58;;;;;;;;;;;9.90;59.30;;;;;;4869088;29;20297;-83
2021/04/18 03:08:34;;;;;;;;;;;9.90;59.30;;;;;;4897356;29;19967;-83
2021/04/18 03:11:10;;;;;;;;;;;9.90;59.30;;;;;;4937553;29;19926;-83
2021/04/18 03:13:37;;;;;;;;;;;9.90;59.30;;;;;;4934143;29;19931;-82
2021/04/18 03:16:11;;;;;;;;;;;10.00;58.50;;;;;;4921388;29;19927;-82
2021/04/18 03:18:39;;;;;;;;;;;10.00;58.40;;;;;;4933534;29;20030;-83
2021/04/18 03:21:18;;;;;;;;;;;10.00;58.80;;;;;;4937609;29;20402;-82
2021/04/18 03:23:46;;;;;;;;;;;10.00;58.30;;;;;;4932513;29;19931;-82
2021/04/18 03:26:17;;;;;;;;;;;10.00;58.20;;;;;;4937978;29;19966;-82
2021/04/18 03:28:43;;;;;;;;;;;10.00;58.20;;;;;;4922466;29;19927;-82
2021/04/18 03:31:09;;;;;;;;;;;10.00;58.20;;;;;;4918345;29;20281;-82
2021/04/18 03:33:35;;;;;;;;;;;10.00;58.30;;;;;;4931548;29;19931;-80
2021/04/18 03:36:02;;;;;;;;;;;10.00;58.40;;;;;;4937872;29;19942;-80
2021/04/18 03:38:29;;;;;;;;;;;9.90;59.20;;;;;;4935708;29;19927;-80
2021/04/18 03:40:55;;;;;;;;;;;9.90;59.30;;;;;;4931397;29;19927;-80
2021/04/18 03:43:22;;;;;;;;;;;9.90;59.50;;;;;;4929478;29;19949;-81
2021/04/18 03:45:48;;;;;;;;;;;9.80;59.50;;;;;;4937491;29;19934;-82
2021/04/18 03:48:16;;;;;;;;;;;9.80;59.40;;;;;;4928397;29;20296;-82
2021/04/18 03:50:45;;;;;;;;;;;9.90;59.30;;;;;;4918635;29;20013;-81
2021/04/18 03:53:11;;;;;;;;;;;9.90;59.40;;;;;;4926583;29;19931;-81
2021/04/18 03:55:38;;;;;;;;;;;9.90;59.30;;;;;;4937490;29;19927;-81
2021/04/18 04:04:43;;;;;;;;;;;9.80;59.20;;;;;;4846103;29;19934;-83
2021/04/18 04:07:11;;;;;;;;;;;9.80;59.40;;;;;;4930331;29;19926;-81
2021/04/18 04:09:38;;;;;;;;;;;9.80;59.40;;;;;;4926386;29;19934;-81
2021/04/18 04:12:06;;;;;;;;;;;9.90;59.40;;;;;;4936692;29;20384;-80
2021/04/18 04:14:33;;;;;;;;;;;9.80;59.30;;;;;;4933740;29;20423;-80
2021/04/18 04:16:59;;;;;;;;;;;9.90;59.40;;;;;;4936779;29;19949;-80
2021/04/18 04:19:26;;;;;;;;;;;9.90;59.30;;;;;;4921828;29;19927;-80
2021/04/18 04:21:52;;;;;;;;;;;9.90;59.20;;;;;;4936886;29;19930;-81
2021/04/18 04:24:18;;;;;;;;;;;9.90;59.20;;;;;;4932236;29;19927;-82
2021/04/18 04:26:45;;;;;;;;;;;9.90;59.20;;;;;;4934730;29;19927;-80
2021/04/18 04:29:12;;;;;;;;;;;9.90;59.20;;;;;;4924278;29;19938;-81
2021/04/18 04:31:38;;;;;;;;;;;9.90;59.20;;;;;;4930558;29;20384;-82
2021/04/18 04:34:04;;;;;;;;;;;9.90;59.20;;;;;;4935639;29;19927;-81
2021/04/18 04:36:34;;;;;;;;;;;9.90;59.20;;;;;;4936518;29;19927;-89
2021/04/18 04:39:27;;;;;;;;;;;9.90;59.30;;;;;;4925812;29;20395;-84
2021/04/18 04:48:36;;;;;;;;;;;10.00;58.40;;;;;;4876771;29;20063;-84
2021/04/18 04:54:05;;;;;;;;;;;10.00;58.40;;;;;;4883357;29;19922;-80
2021/04/18 04:59:34;;;;;;;;;;;9.90;59.40;;;;;;4884145;29;19927;-80
2021/04/18 05:02:01;;;;;;;;;;;10.00;58.60;;;;;;4880740;29;19934;-80
2021/04/18 05:04:28;;;;;;;;;;;10.00;58.40;;;;;;4893988;29;19927;-80
2021/04/18 05:07:00;;;;;;;;;;;9.90;59.20;;;;;;4933899;29;19930;-82
2021/04/18 05:09:26;;;;;;;;;;;10.00;58.40;;;;;;4929644;29;19931;-81
2021/04/18 05:11:54;;;;;;;;;;;10.00;58.40;;;;;;4924050;29;19927;-80
2021/04/18 05:14:20;;;;;;;;;;;10.00;58.50;;;;;;4924279;29;19931;-79
2021/04/18 05:16:46;;;;;;;;;;;10.00;58.60;;;;;;4930897;29;19931;-79
2021/04/18 05:19:14;;;;;;;;;;;10.00;58.50;;;;;;4915495;29;19927;-79
2021/04/18 05:21:40;;;;;;;;;;;10.10;58.40;;;;;;4930277;29;19931;-79
2021/04/18 05:24:06;;;;;;;;;;;10.10;58.10;;;;;;4932045;29;19927;-78
2021/04/18 05:26:33;;;;;;;;;;;10.10;58.00;;;;;;4922718;29;19931;-80
2021/04/18 05:28:59;;;;;;;;;;;10.10;58.00;;;;;;4917003;29;19982;-78
2021/04/18 05:31:26;;;;;;;;;;;10.10;57.90;;;;;;4923965;29;19990;-80
2021/04/18 05:33:52;;;;;;;;;;;10.10;57.60;;;;;;4916655;29;19934;-78
2021/04/18 05:36:19;;;;;;;;;;;10.20;57.70;;;;;;4935268;29;19927;-80
2021/04/18 05:38:45;;;;;;;;;;;10.20;57.70;;;;;;4935998;29;20373;-78
2021/04/18 05:41:12;;;;;;;;;;;10.20;57.70;;;;;;4934281;29;20300;-80
2021/04/18 05:43:38;;;;;;;;;;;10.20;57.60;;;;;;4935724;29;19927;-79
2021/04/18 05:46:04;;;;;;;;;;;10.20;57.60;;;;;;4932351;29;19930;-79
2021/04/18 05:48:31;;;;;;;;;;;10.20;57.70;;;;;;4935692;29;19926;-81
2021/04/18 05:50:57;;;;;;;;;;;10.20;57.80;;;;;;4931504;29;20281;-80
2021/04/18 05:53:24;;;;;;;;;;;10.30;57.90;;;;;;4919708;29;19982;-79
2021/04/18 05:55:51;;;;;;;;;;;10.30;57.90;;;;;;4929901;29;19926;-79
2021/04/18 05:58:17;;;;;;;;;;;10.30;57.80;;;;;;4933893;29;20693;-77
2021/04/18 06:00:43;;;;;;;;;;;10.40;58.00;;;;;;4925644;29;19927;-79
2021/04/18 06:03:09;;;;;;;;;;;10.40;58.00;;;;;;4925202;29;19927;-78
2021/04/18 06:05:36;;;;;;;;;;;10.40;58.00;;;;;;4917981;29;20947;-78
2021/04/18 06:08:02;;;;;;;;;;;10.40;57.80;;;;;;4936688;29;19927;-78
2021/04/18 06:10:30;;;;;;;;;;;10.40;57.90;;;;;;4929667;29;19927;-78
2021/04/18 06:12:56;;;;;;;;;;;10.50;57.80;;;;;;4942832;29;20030;-78
2021/04/18 06:15:22;;;;;;;;;;;10.50;57.60;;;;;;4934259;29;19926;-80
2021/04/18 06:17:48;;;;;;;;;;;10.50;57.50;;;;;;4929456;29;20376;-80
2021/04/18 06:20:15;;;;;;;;;;;10.50;57.60;;;;;;4934156;29;19931;-79
2021/04/18 06:22:41;;;;;;;;;;;10.50;57.50;;;;;;4954535;29;19931;-81
2021/04/18 06:25:08;;;;;;;;;;;10.50;57.30;;;;;;4941116;29;19927;-80
2021/04/18 06:27:35;;;;;;;;;;;10.50;57.10;;;;;;4933962;29;20300;-79
2021/04/18 06:30:01;;;;;;;;;;;10.50;57.20;;;;;;4926790;29;19927;-80
2021/04/18 06:32:28;;;;;;;;;;;10.50;57.50;;;;;;4925682;29;19935;-79
2021/04/18 06:34:54;;;;;;;;;;;10.60;57.70;;;;;;4932792;29;19931;-80
2021/04/18 06:37:20;;;;;;;;;;;10.60;57.80;;;;;;4933395;29;19934;-81
2021/04/18 06:39:47;;;;;;;;;;;10.60;57.70;;;;;;4914944;29;19927;-78
2021/04/18 06:42:14;;;;;;;;;;;10.70;57.80;;;;;;4916465;29;20292;-79
2021/04/18 06:44:41;;;;;;;;;;;10.80;57.80;;;;;;4931595;29;19926;-80
2021/04/18 06:47:08;;;;;;;;;;;10.80;57.70;;;;;;4930924;28;19926;-81
2021/04/18 06:49:35;;;;;;;;;;;10.90;57.50;;;;;;4946057;29;19934;-80
2021/04/18 06:52:02;;;;;;;;;;;11.00;57.10;;;;;;4938104;29;19931;-81
2021/04/18 06:54:28;;;;;;;;;;;11.10;56.80;;;;;;4940121;29;19927;-79
2021/04/18 06:56:54;;;;;;;;;;;11.10;56.70;;;;;;4934468;29;20014;-79
2021/04/18 06:59:20;;;;;;;;;;;11.10;56.50;;;;;;4937378;28;20387;-79
2021/04/18 07:01:48;;;;;;;;;;;11.20;56.20;;;;;;4944503;28;19934;-79
2021/04/18 07:04:15;;;;;;;;;;;11.20;56.10;;;;;;4941910;28;19931;-77
2021/04/18 07:06:42;;;;;;;;;;;11.30;56.30;;;;;;4931978;29;19934;-78
2021/04/18 07:09:08;;;;;;;;;;;11.30;56.30;;;;;;4929953;29;20387;-77
2021/04/18 07:11:45;;;;;;;;;;;11.40;56.00;;;;;;4921315;29;19934;-78
2021/04/18 07:14:21;;;;;;;;;;;11.40;55.80;;;;;;4921879;29;20001;-79
2021/04/18 07:16:48;;;;;;;;;;;11.50;55.50;;;;;;4922783;29;19939;-80
2021/04/18 07:19:24;;;;;;;;;;;11.50;55.40;;;;;;4926740;29;19927;-80
2021/04/18 07:21:51;;;;;;;;;;;11.60;55.20;;;;;;4918965;29;20380;-80
2021/04/18 07:24:18;;;;;;;;;;;11.70;55.00;;;;;;4932942;29;19983;-79
2021/04/18 07:26:53;;;;;;;;;;;11.80;54.90;;;;;;4934558;29;19934;-80
2021/04/18 07:29:20;;;;;;;;;;;11.80;53.80;;;;;;4937088;29;20380;-78
2021/04/18 07:31:46;;;;;;;;;;;11.80;53.40;;;;;;4933729;29;20021;-80
2021/04/18 07:34:14;;;;;;;;;;;11.90;53.60;;;;;;4929234;29;19935;-77
2021/04/18 07:36:41;;;;;;;;;;;11.90;53.80;;;;;;4946046;29;20384;-77
2021/04/18 07:39:09;;;;;;;;;;;12.00;53.60;;;;;;4920675;29;19931;-77
2021/04/18 07:41:38;;;;;;;;;;;12.00;52.90;;;;;;4927370;29;19937;-78
2021/04/18 07:44:06;;;;;;;;;;;12.00;52.80;;;;;;4937048;29;19970;-79
2021/04/18 07:46:33;;;;;;;;;;;12.00;52.80;;;;;;4937423;29;20388;-79
2021/04/18 07:49:00;;;;;;;;;;;12.00;52.60;;;;;;4956649;29;19927;-78
2021/04/18 07:51:27;;;;;;;;;;;12.00;52.50;;;;;;4947186;29;20388;-79
2021/04/18 07:53:53;;;;;;;;;;;11.90;52.80;;;;;;4930110;29;19927;-79
2021/04/18 07:56:20;;;;;;;;;;;11.90;53.00;;;;;;4925793;29;19934;-78
2021/04/18 07:58:46;;;;;;;;;;;11.80;53.00;;;;;;4916629;29;19935;-80
2021/04/18 08:01:13;;;;;;;;;;;11.90;52.90;;;;;;4922053;29;19928;-78
2021/04/18 08:03:40;;;;;;;;;;;12.00;52.60;;;;;;4931904;29;19930;-79
2021/04/18 08:06:07;;;;;;;;;;;12.00;52.40;;;;;;4936893;29;19926;-78
2021/04/18 08:08:47;;;;;;;;;;;12.10;52.50;;;;;;4919157;29;19927;-78
2021/04/18 08:11:15;;;;;;;;;;;12.10;52.40;;;;;;4926636;29;19927;-78
2021/04/18 08:13:43;;;;;;;;;;;12.10;52.20;;;;;;4918429;29;19953;-78
2021/04/18 08:16:10;;;;;;;;;;;12.10;52.40;;;;;;4928777;29;20014;-78
2021/04/18 08:18:37;;;;;;;;;;;12.10;52.70;;;;;;4936387;29;19931;-79
2021/04/18 08:21:21;;;;;;;;;;;12.10;52.60;;;;;;4919520;29;19927;-79
2021/04/18 08:23:48;;;;;;;;;;;12.10;52.70;;;;;;4928010;29;19926;-78
2021/04/18 08:26:15;;;;;;;;;;;12.00;51.40;;;;;;4931125;29;19927;-78
2021/04/18 08:29:03;;;;;;;;;;;11.90;51.30;;;;;;4948475;28;19981;-79
2021/04/18 08:31:30;;;;;;;;;;;11.60;51.40;;;;;;4918592;29;19950;-78
2021/04/18 08:34:00;;;;;;;;;;;11.60;52.30;;;;;;4936384;29;19939;-78
2021/04/18 08:36:27;;;;;;;;;;;11.60;52.60;;;;;;4936731;29;20078;-78
2021/04/18 08:41:48;;;;;;;;;;;11.80;51.70;;;;;;5090334;28;19912;-79
2021/04/18 08:44:16;;;;;;;;;;;12.00;51.40;;;;;;5090353;28;19932;-77
2021/04/18 08:46:43;;;;;;;;;;;12.10;51.40;;;;;;5089793;28;20392;-77
2021/04/18 08:49:10;;;;;;;;;;;12.10;51.00;;;;;;5092278;28;19977;-81
2021/04/18 08:51:36;;;;;;;;;;;12.00;51.30;;;;;;5088398;28;19932;-80
2021/04/18 08:54:03;;;;;;;;;;;12.10;51.50;;;;;;5089473;28;19924;-79
2021/04/18 08:56:45;;;;;;;;;;;12.10;51.40;;;;;;5089859;28;20569;-78
2021/04/18 08:59:13;;;;;;;;;;;12.20;51.20;;;;;;5089687;28;20262;-79
2021/04/18 09:01:47;;;;;;;;;;;12.20;50.80;;;;;;5089845;28;20300;-79
2021/04/18 09:04:13;;;;;;;;;;;12.30;50.30;;;;;;5090161;28;19929;-79
2021/04/18 09:06:41;;;;;;;;;;;12.50;49.90;;;;;;5088765;28;19932;-79
2021/04/18 09:09:07;;;;;;;;;;;12.50;49.80;;;;;;5095655;28;19924;-79
2021/04/18 09:11:41;;;;;;;;;;;12.70;49.30;;;;;;5089621;28;20266;-81
2021/04/18 09:14:08;;;;;;;;;;;12.70;49.20;;;;;;5090172;28;20080;-82
2021/04/18 09:16:36;;;;;;;;;;;12.70;49.30;;;;;;5088295;28;20462;-79
2021/04/18 09:19:18;;;;;;;;;;;12.70;49.50;;;;;;5087694;28;19924;-79
2021/04/18 09:21:52;;;;;;;;;;;12.80;49.20;;;;;;5088938;28;19924;-79
2021/04/18 09:24:18;;;;;;;;;;;13.00;49.40;;;;;;5088431;28;19928;-79
2021/04/18 09:26:53;;;;;;;;;;;13.20;49.20;;;;;;5088603;28;19947;-79
2021/04/18 09:29:19;;;;;;;;;;;13.30;48.40;;;;;;5089627;28;19925;-80
2021/04/18 09:31:53;;;;;;;;;;;13.40;48.30;;;;;;5088532;28;19925;-80
2021/04/18 09:34:20;;;;;;;;;;;13.40;48.00;;;;;;5088920;28;19947;-80
2021/04/18 09:36:47;;;;;;;;;;;13.40;47.80;;;;;;5088814;28;20377;-81
2021/04/18 09:39:13;;;;;;;;;;;13.40;47.90;;;;;;5088661;28;19936;-82
2021/04/18 09:41:40;;;;;;;;;;;13.40;47.70;;;;;;5088166;28;19924;-81
2021/04/18 09:44:07;;;;;;;;;;;13.40;47.50;;;;;;5091614;28;19951;-81
2021/04/18 09:46:40;;;;;;;;;;;13.30;47.40;;;;;;5086799;28;19966;-81
2021/04/18 09:49:08;;;;;;;;;;;13.40;47.50;;;;;;5089915;28;19931;-82
2021/04/18 10:50:47;;;;;;;;;;;15.10;44.30;;;;;;5094586;28;19939;-89
2021/04/18 10:53:19;;;;;;;;;;;15.00;44.00;;;;;;5093359;28;19935;-83
2021/04/18 10:55:46;;;;;;;;;;;14.90;44.40;;;;;;5094196;28;20289;-82
2021/04/18 10:58:36;;;;;;;;;;;14.90;44.60;;;;;;5093436;28;19977;-85
2021/04/18 11:01:10;;;;;;;;;;;14.90;44.60;;;;;;5096587;28;19928;-81
2021/04/18 11:03:45;;;;;;;;;;;15.00;44.70;;;;;;5103046;28;20214;-80
2021/04/18 11:06:13;;;;;;;;;;;15.00;44.60;;;;;;5104785;28;20073;-80
2021/04/18 11:08:40;;;;;;;;;;;15.10;44.30;;;;;;5087208;28;19974;-79
2021/04/18 11:11:06;;;;;;;;;;;15.10;44.60;;;;;;5099090;28;20376;-80
2021/04/18 11:13:33;;;;;;;;;;;15.10;44.50;;;;;;5095602;28;20300;-81
2021/04/18 11:16:05;;;;;;;;;;;15.20;44.40;;;;;;5070258;28;19947;-82
2021/04/18 11:18:32;;;;;;;;;;;15.50;44.70;;;;;;5090130;28;19924;-79
2021/04/18 11:20:58;;;;;;;;;;;15.70;43.40;;;;;;5100596;28;20451;-78
2021/04/18 11:23:25;;;;;;;;;;;15.80;43.60;;;;;;5093898;28;19978;-80
2021/04/18 11:25:55;;;;;;;;;;;15.90;43.10;;;;;;5092360;28;19932;-81
2021/04/18 11:28:24;;;;;;;;;;;15.90;43.30;;;;;;5103790;28;19928;-81
2021/04/18 11:30:51;;;;;;;;;;;16.00;43.00;;;;;;5093541;28;19931;-81
2021/04/18 11:33:17;;;;;;;;;;;15.90;42.40;;;;;;5092015;28;19924;-80
2021/04/18 11:35:43;;;;;;;;;;;15.80;42.60;;;;;;5094145;28;19928;-83
2021/04/18 11:38:10;;;;;;;;;;;15.60;42.40;;;;;;5094562;28;19924;-81
2021/04/18 11:40:39;;;;;;;;;;;15.40;42.20;;;;;;5097260;28;19924;-82
2021/04/18 11:45:52;;;;;;;;;;;15.30;42.90;;;;;;5101260;28;19931;-81
2021/04/18 11:48:45;;;;;;;;;;;15.30;43.10;;;;;;5105599;28;20384;-83
2021/04/18 11:51:12;;;;;;;;;;;15.30;43.00;;;;;;5010102;28;19980;-82
2021/04/18 11:53:47;;;;;;;;;;;15.20;42.80;;;;;;5068550;28;19927;-82
2021/04/18 11:56:13;;;;;;;;;;;15.20;43.10;;;;;;5114000;28;19924;-81
2021/04/18 11:58:41;;;;;;;;;;;15.20;43.30;;;;;;5110385;28;19953;-81
2021/04/18 12:01:07;;;;;;;;;;;15.30;43.50;;;;;;5093451;28;20034;-80
2021/04/18 12:03:35;;;;;;;;;;;15.50;43.10;;;;;;5094320;28;19926;-81
2021/04/18 12:06:01;;;;;;;;;;;15.50;42.80;;;;;;5098109;28;19924;-81
2021/04/18 12:11:57;;;;;;;;;;;;;;;;;;;;;
2021/04/18 12:18:08;;;;;;;;;;;;;;;;;;;;;
2021/04/18 12:20:42;;;;;;;;;;;15.20;43.20;;;;;;5082142;28;20384;-89
2021/04/18 12:23:08;;;;;;;;;;;15.10;43.70;;;;;;5095918;28;19932;-82
2021/04/18 12:35:13;;;;;;;;;;;15.50;44.00;;;;;;5010999;28;20294;-81
2021/04/18 12:40:34;;;;;;;;;;;15.80;43.30;;;;;;5006765;28;20024;-82
2021/04/18 12:43:03;;;;;;;;;;;15.90;42.80;;;;;;5008438;28;20362;-80
2021/04/18 12:45:37;;;;;;;;;;;16.00;42.90;;;;;;5060983;28;19938;-80
2021/04/18 12:48:07;;;;;;;;;;;16.10;43.00;;;;;;5094121;28;20023;-81
2021/04/18 12:50:36;;;;;;;;;;;16.10;43.10;;;;;;5104794;28;20385;-80
2021/04/18 12:53:11;;;;;;;;;;;16.10;42.90;;;;;;5110278;28;20382;-80
2021/04/18 12:55:39;;;;;;;;;;;16.20;42.30;;;;;;5092672;28;19932;-80
2021/04/18 13:04:57;;;;;;;;;;;15.90;43.00;;;;;;4990394;28;19924;-84
2021/04/18 13:07:50;;;;;;;;;;;15.80;43.00;;;;;;4934902;29;19935;-83
2021/04/18 13:10:27;;;;;;;;;;;15.80;43.10;;;;;;4989111;28;19991;-81
2021/04/18 13:12:53;;;;;;;;;;;15.70;43.20;;;;;;5021096;28;19975;-78
2021/04/18 13:15:20;;;;;;;;;;;15.50;43.00;;;;;;5029268;28;20414;-79
2021/04/18 13:17:48;;;;;;;;;;;15.40;43.50;;;;;;5043310;28;19924;-78
2021/04/18 13:20:27;;;;;;;;;;;15.40;43.80;;;;;;5090630;28;19924;-84
2021/04/18 13:22:54;;;;;;;;;;;15.50;43.80;;;;;;5102874;28;19924;-80
2021/04/18 13:25:39;;;;;;;;;;;15.60;43.60;;;;;;5095364;28;19924;-82
2021/04/18 13:28:06;;;;;;;;;;;15.60;43.30;;;;;;5097343;28;19925;-80
2021/04/18 13:30:32;;;;;;;;;;;15.70;43.10;;;;;;5095134;28;19977;-82
2021/04/18 13:36:17;;;;;;;;;;;15.70;43.10;;;;;;5074675;28;19948;-82
2021/04/18 13:38:44;;;;;;;;;;;15.60;43.50;;;;;;5079778;28;19923;-79
2021/04/18 13:41:11;;;;;;;;;;;15.60;43.10;;;;;;5097247;28;19928;-81
2021/04/18 13:43:38;;;;;;;;;;;15.50;42.90;;;;;;5111116;28;19924;-80
2021/04/18 13:52:39;;;;;;;;;;;15.60;42.90;;;;;;4943493;29;20347;-84
2021/04/18 14:19:56;;;;;;;;;;;15.50;42.90;;;;;;4928019;29;19976;-81
2021/04/18 14:22:49;;;;;;;;;;;15.40;43.10;;;;;;4931834;29;20100;-86
2021/04/18 14:25:26;;;;;;;;;;;15.30;43.30;;;;;;4953928;28;19926;-81
2021/04/18 14:27:53;;;;;;;;;;;15.30;43.50;;;;;;5022100;28;20359;-80
2021/04/18 14:30:20;;;;;;;;;;;15.30;43.50;;;;;;5088396;28;20019;-81
2021/04/18 14:32:46;;;;;;;;;;;15.40;43.30;;;;;;5094281;28;19932;-81
2021/04/18 14:35:15;;;;;;;;;;;15.40;43.30;;;;;;5094118;28;19977;-81
2021/04/18 14:37:41;;;;;;;;;;;15.30;43.80;;;;;;5093758;28;19924;-81
2021/04/18 14:43:11;;;;;;;;;;;15.40;43.60;;;;;;5053895;28;19971;-80
2021/04/18 14:45:38;;;;;;;;;;;15.30;43.70;;;;;;5074563;28;20003;-81
2021/04/18 14:48:10;;;;;;;;;;;15.20;43.80;;;;;;5074000;28;20281;-80
2021/04/18 14:56:44;;;;;;;;;;;15.40;44.00;;;;;;5074872;28;19919;-82
2021/04/18 14:59:13;;;;;;;;;;;15.50;43.70;;;;;;5072809;28;19990;-84
2021/04/18 15:01:53;;;;;;;;;;;15.50;43.80;;;;;;5073038;28;19924;-83
2021/04/18 15:07:09;;;;;;;;;;;15.60;43.80;;;;;;5070433;28;20007;-82
2021/04/18 15:09:38;;;;;;;;;;;15.70;43.70;;;;;;5064800;28;19924;-82
2021/04/18 15:12:09;;;;;;;;;;;15.70;43.70;;;;;;5077264;28;20448;-81
2021/04/18 15:14:56;;;;;;;;;;;15.70;43.40;;;;;;5072238;28;19925;-84
2021/04/18 15:17:25;;;;;;;;;;;15.70;43.50;;;;;;5072620;28;20317;-83
2021/04/18 15:29:09;;;;;;;;;;;15.40;44.20;;;;;;4944984;29;19965;-82
2021/04/18 15:31:36;;;;;;;;;;;15.30;44.40;;;;;;5001230;28;19972;-80
2021/04/18 15:34:08;;;;;;;;;;;15.20;44.30;;;;;;5064912;28;20407;-83
2021/04/18 15:37:11;;;;;;;;;;;15.10;44.40;;;;;;5072677;28;19924;-83
2021/04/18 15:39:38;;;;;;;;;;;15.00;44.60;;;;;;5070250;28;19928;-80
2021/04/18 15:45:07;;;;;;;;;;;14.90;45.00;;;;;;5004827;28;19939;-80
2021/04/18 15:47:37;;;;;;;;;;;14.80;45.30;;;;;;5069801;28;20431;-80
2021/04/18 15:52:44;;;;;;;;;;;14.70;45.80;;;;;;5072614;28;19925;-79
2021/04/18 15:55:14;;;;;;;;;;;14.70;46.00;;;;;;5084037;28;19931;-80
2021/04/18 15:57:41;;;;;;;;;;;14.60;46.00;;;;;;5065863;28;19971;-79
2021/04/18 16:03:30;;;;;;;;;;;14.50;46.30;;;;;;5066687;28;20395;-82
2021/04/18 16:09:03;;;;;;;;;;;14.50;46.60;;;;;;5040375;28;19978;-85
2021/04/18 16:17:55;;;;;;;;;;;14.60;46.80;;;;;;5071239;28;20245;-85
2021/04/18 16:24:16;;;;;;;;;;;14.70;47.00;;;;;;4936818;29;19933;-84
2021/04/18 16:29:42;;;;;;;;;;;14.60;46.60;;;;;;4946680;29;19933;-83
2021/04/18 16:32:29;;;;;;;;;;;14.60;46.70;;;;;;4951596;29;20067;-83
2021/04/18 16:38:39;;;;;;;;;;;14.50;46.90;;;;;;4937035;29;20496;-84
2021/04/18 16:51:20;;;;;;;;;;;14.30;47.60;;;;;;5009361;28;20486;-84
2021/04/18 17:09:36;;;;;;;;;;;14.30;48.10;;;;;;5037841;28;19932;-83
2021/04/18 17:18:18;;;;;;;;;;;14.10;48.00;;;;;;4971004;28;19926;-84
2021/04/18 17:21:23;;;;;;;;;;;;;;;;;;;;;
2021/04/18 17:48:16;;;;;;;;;;;13.80;49.20;;;;;;5029421;28;19925;-85
2021/04/18 17:51:08;;;;;;;;;;;13.80;49.20;;;;;;5032902;28;19935;-84
2021/04/18 17:59:54;;;;;;;;;;;13.70;49.50;;;;;;4973227;28;19921;-82
2021/04/18 18:02:35;;;;;;;;;;;13.60;49.70;;;;;;4972707;28;19930;-82
2021/04/18 18:05:05;;;;;;;;;;;13.60;50.10;;;;;;4973535;28;20049;-81
2021/04/18 18:07:31;;;;;;;;;;;13.60;50.30;;;;;;4998020;28;20027;-80
2021/04/18 18:10:01;;;;;;;;;;;13.60;50.50;;;;;;5094988;28;20389;-81
2021/04/18 18:12:35;;;;;;;;;;;13.60;50.70;;;;;;5092257;28;19981;-83
2021/04/18 18:15:05;;;;;;;;;;;13.50;50.70;;;;;;5094812;28;20322;-81
2021/04/18 18:17:31;;;;;;;;;;;13.50;50.70;;;;;;5095228;28;19931;-80
2021/04/18 18:20:01;;;;;;;;;;;13.50;50.70;;;;;;5094321;28;19931;-80
2021/04/18 18:22:27;;;;;;;;;;;13.50;51.40;;;;;;5094008;28;19925;-80
2021/04/18 18:27:51;;;;;;;;;;;13.50;51.00;;;;;;5092089;28;19932;-82
2021/04/18 18:30:20;;;;;;;;;;;13.50;51.20;;;;;;5092474;28;19931;-82
2021/04/18 18:36:43;;;;;;;;;;;13.40;51.10;;;;;;5020770;28;19964;-83
2021/04/18 18:42:34;;;;;;;;;;;13.40;51.50;;;;;;5012610;28;19971;-84
2021/04/18 18:51:42;;;;;;;;;;;13.30;51.80;;;;;;5094091;28;19946;-86
2021/04/18 19:10:22;;;;;;;;;;;13.20;52.30;;;;;;4915785;29;19921;-86
2021/04/18 19:28:45;;;;;;;;;;;13.00;53.00;;;;;;4956163;28;19921;-84
2021/04/18 19:31:17;;;;;;;;;;;13.00;53.20;;;;;;5034051;28;19932;-82
2021/04/18 19:34:06;;;;;;;;;;;12.90;53.30;;;;;;5046122;28;19999;-84
2021/04/18 19:36:56;;;;;;;;;;;12.90;53.40;;;;;;5050908;28;19925;-84
2021/04/18 19:39:26;;;;;;;;;;;12.80;53.60;;;;;;5051436;28;19932;-81
2021/04/18 19:41:53;;;;;;;;;;;12.70;53.70;;;;;;5053053;28;20288;-82
2021/04/18 19:44:38;;;;;;;;;;;12.70;53.70;;;;;;5039201;28;19950;-85
2021/04/18 19:47:04;;;;;;;;;;;12.70;54.30;;;;;;5033306;28;19933;-83
2021/04/18 19:49:58;;;;;;;;;;;12.60;53.70;;;;;;5047563;28;19925;-85
2021/04/18 19:52:32;;;;;;;;;;;12.60;53.70;;;;;;5048553;28;19956;-84
2021/04/18 19:54:59;;;;;;;;;;;12.50;53.70;;;;;;5051066;28;19968;-82
2021/04/18 19:57:27;;;;;;;;;;;12.50;53.70;;;;;;5039525;28;19932;-82
2021/04/18 20:00:25;;;;;;;;;;;12.50;53.80;;;;;;5034172;28;19982;-82
2021/04/18 20:02:52;;;;;;;;;;;12.50;54.10;;;;;;5042760;28;19925;-81
2021/04/18 20:05:19;;;;;;;;;;;12.40;54.10;;;;;;5032998;28;19960;-82
2021/04/18 20:07:45;;;;;;;;;;;12.40;54.20;;;;;;5046104;28;19928;-81
2021/04/18 20:13:20;;;;;;;;;;;12.40;54.40;;;;;;5033162;28;20383;-83